createdAt,value
2023-12-07T00:00:18.501Z,38.67
2023-12-07T00:00:51.032Z,38.25
2023-12-07T00:01:26.122Z,38.49
2023-12-07T00:01:58.658Z,38.26
2023-12-07T00:02:31.054Z,38.24
2023-12-07T00:03:03.530Z,38.27
2023-12-07T00:03:38.511Z,38.62
2023-12-07T00:04:11.018Z,38.19
2023-12-07T00:04:43.440Z,38.44
2023-12-07T00:05:15.902Z,38.20
2023-12-07T00:05:48.335Z,38.25
2023-12-07T00:06:23.718Z,38.24
2023-12-07T00:06:56.187Z,38.58
2023-12-07T00:07:28.633Z,38.56
2023-12-07T00:08:01.092Z,38.41
2023-12-07T00:08:36.072Z,38.23
2023-12-07T00:09:08.474Z,38.60
2023-12-07T00:09:40.847Z,38.59
2023-12-07T00:10:13.323Z,38.53
2023-12-07T00:10:45.796Z,38.27
2023-12-07T00:11:23.375Z,38.51
2023-12-07T00:11:55.997Z,38.25
2023-12-07T00:12:28.682Z,38.56
2023-12-07T00:13:01.383Z,38.20
2023-12-07T00:13:36.450Z,38.39
2023-12-07T00:14:08.862Z,38.59
2023-12-07T00:14:41.235Z,38.46
2023-12-07T00:15:16.231Z,38.53
2023-12-07T00:15:49.097Z,38.53
2023-12-07T00:16:21.490Z,38.50
2023-12-07T00:16:53.925Z,38.18
2023-12-07T00:17:28.906Z,38.39
2023-12-07T00:18:01.686Z,38.45
2023-12-07T00:18:34.483Z,38.34
2023-12-07T00:19:09.582Z,38.51
2023-12-07T00:19:42.002Z,38.65
2023-12-07T00:20:14.510Z,38.53
2023-12-07T00:20:46.915Z,38.67
2023-12-07T00:21:21.868Z,38.31
2023-12-07T00:21:54.259Z,38.22
2023-12-07T00:22:27.977Z,38.31
2023-12-07T00:23:03.962Z,38.60
2023-12-07T00:23:36.324Z,38.27
2023-12-07T00:24:09.149Z,38.61
2023-12-07T00:24:44.106Z,38.54
2023-12-07T00:25:17.247Z,38.60
2023-12-07T00:25:49.854Z,38.35
2023-12-07T00:26:27.440Z,38.53
2023-12-07T00:27:00.373Z,38.63
2023-12-07T00:27:32.877Z,38.58
2023-12-07T00:28:06.685Z,38.39
2023-12-07T00:28:41.682Z,38.58
2023-12-07T00:29:14.084Z,38.42
2023-12-07T00:29:46.468Z,38.44
2023-12-07T00:30:22.152Z,38.40
2023-12-07T00:30:54.556Z,38.38
2023-12-07T00:31:27.544Z,38.60
2023-12-07T00:31:59.934Z,38.22
2023-12-07T00:32:34.957Z,38.60
2023-12-07T00:33:07.353Z,38.24
2023-12-07T00:33:39.706Z,38.56
2023-12-07T00:34:14.764Z,38.40
2023-12-07T00:34:47.406Z,38.46
2023-12-07T00:35:23.413Z,38.50
2023-12-07T00:35:58.480Z,38.31
2023-12-07T00:36:31.192Z,38.53
2023-12-07T00:37:04.456Z,38.25
2023-12-07T00:37:37.462Z,38.43
2023-12-07T00:38:12.735Z,38.59
2023-12-07T00:38:45.088Z,38.30
2023-12-07T00:39:18.420Z,38.29
2023-12-07T00:39:50.813Z,38.61
2023-12-07T00:40:23.659Z,38.70
2023-12-07T00:40:58.652Z,38.46
2023-12-07T00:41:33.704Z,38.23
2023-12-07T00:42:06.290Z,38.42
2023-12-07T00:42:39.184Z,38.49
2023-12-07T00:43:14.210Z,38.74
2023-12-07T00:43:46.817Z,38.38
2023-12-07T00:44:19.174Z,38.65
2023-12-07T00:44:51.554Z,38.55
2023-12-07T00:45:26.577Z,38.30
2023-12-07T00:45:59.315Z,38.62
2023-12-07T00:46:31.763Z,38.42
2023-12-07T00:47:04.769Z,38.69
2023-12-07T00:47:39.876Z,38.66
2023-12-07T00:48:12.369Z,38.41
2023-12-07T00:48:44.767Z,38.30
2023-12-07T00:49:17.222Z,38.39
2023-12-07T00:49:52.354Z,38.47
2023-12-07T00:50:24.781Z,38.67
2023-12-07T00:50:57.168Z,38.74
2023-12-07T00:51:29.543Z,38.41
2023-12-07T00:52:04.678Z,38.39
2023-12-07T00:52:37.111Z,38.56
2023-12-07T00:53:10.136Z,38.31
2023-12-07T00:53:42.647Z,38.46
2023-12-07T00:54:17.756Z,38.55
2023-12-07T00:54:50.169Z,38.34
2023-12-07T00:55:22.629Z,38.59
2023-12-07T00:55:57.591Z,38.42
2023-12-07T00:56:32.552Z,38.67
2023-12-07T00:57:05.176Z,38.53
2023-12-07T00:57:37.554Z,38.73
2023-12-07T00:58:12.580Z,38.35
2023-12-07T00:58:45.020Z,38.65
2023-12-07T00:59:17.794Z,38.41
2023-12-07T00:59:50.219Z,38.51
2023-12-07T01:00:25.188Z,38.56
2023-12-07T01:00:57.635Z,38.70
2023-12-07T01:01:30.055Z,38.34
2023-12-07T01:02:02.622Z,38.41
2023-12-07T01:02:37.678Z,38.36
2023-12-07T01:03:10.080Z,38.42
2023-12-07T01:03:42.456Z,38.80
2023-12-07T01:04:17.508Z,38.78
2023-12-07T01:04:50.009Z,38.75
2023-12-07T01:05:22.512Z,38.39
2023-12-07T01:05:57.605Z,38.42
2023-12-07T01:06:30.153Z,38.61
2023-12-07T01:07:02.883Z,38.60
2023-12-07T01:07:38.102Z,38.65
2023-12-07T01:08:10.514Z,38.40
2023-12-07T01:08:43.020Z,38.61
2023-12-07T01:09:16.157Z,38.42
2023-12-07T01:09:51.223Z,38.52
2023-12-07T01:10:23.647Z,38.85
2023-12-07T01:10:55.998Z,38.70
2023-12-07T01:11:28.445Z,38.65
2023-12-07T01:12:06.203Z,38.57
2023-12-07T01:12:38.635Z,38.73
2023-12-07T01:13:11.047Z,38.38
2023-12-07T01:13:43.427Z,38.70
2023-12-07T01:14:18.465Z,38.80
2023-12-07T01:14:50.855Z,38.50
2023-12-07T01:15:23.232Z,38.85
2023-12-07T01:15:58.252Z,38.63
2023-12-07T01:16:30.990Z,38.78
2023-12-07T01:17:03.648Z,38.75
2023-12-07T01:17:36.068Z,38.56
2023-12-07T01:18:11.120Z,38.73
2023-12-07T01:18:43.553Z,38.66
2023-12-07T01:19:16.137Z,38.47
2023-12-07T01:19:48.571Z,38.50
2023-12-07T01:20:23.569Z,38.60
2023-12-07T01:20:56.081Z,38.84
2023-12-07T01:21:28.531Z,38.45
2023-12-07T01:22:00.969Z,38.53
2023-12-07T01:22:36.007Z,38.78
2023-12-07T01:23:10.978Z,38.61
2023-12-07T01:23:44.472Z,38.63
2023-12-07T01:24:17.162Z,38.61
2023-12-07T01:24:52.274Z,38.80
2023-12-07T01:25:25.702Z,38.41
2023-12-07T01:26:01.630Z,38.72
2023-12-07T01:26:34.030Z,38.64
2023-12-07T01:27:11.725Z,38.59
2023-12-07T01:27:44.136Z,38.68
2023-12-07T01:28:16.636Z,38.83
2023-12-07T01:28:49.043Z,38.46
2023-12-07T01:29:24.492Z,38.65
2023-12-07T01:29:57.031Z,38.56
2023-12-07T01:30:29.449Z,38.51
2023-12-07T01:31:02.154Z,38.46
2023-12-07T01:31:37.208Z,38.89
2023-12-07T01:32:10.064Z,38.64
2023-12-07T01:32:42.409Z,38.50
2023-12-07T01:33:14.789Z,38.78
2023-12-07T01:33:47.297Z,38.60
2023-12-07T01:34:22.411Z,38.75
2023-12-07T01:34:54.878Z,38.82
2023-12-07T01:35:27.255Z,38.78
2023-12-07T01:36:02.231Z,38.68
2023-12-07T01:36:34.660Z,38.85
2023-12-07T01:37:07.107Z,38.59
2023-12-07T01:37:39.623Z,38.42
2023-12-07T01:38:14.651Z,38.60
2023-12-07T01:38:47.041Z,38.81
2023-12-07T01:39:19.972Z,38.38
2023-12-07T01:39:52.365Z,38.38
2023-12-07T01:40:27.381Z,38.38
2023-12-07T01:40:59.814Z,38.42
2023-12-07T01:41:32.380Z,38.69
2023-12-07T01:42:05.121Z,38.47
2023-12-07T01:42:42.774Z,38.41
2023-12-07T01:43:15.269Z,38.57
2023-12-07T01:43:48.190Z,38.41
2023-12-07T01:44:21.249Z,38.81
2023-12-07T01:44:56.252Z,38.85
2023-12-07T01:45:28.839Z,38.73
2023-12-07T01:46:01.431Z,38.43
2023-12-07T01:46:34.776Z,38.57
2023-12-07T01:47:11.674Z,38.41
2023-12-07T01:47:44.332Z,38.78
2023-12-07T01:48:16.896Z,38.68
2023-12-07T01:48:50.738Z,38.87
2023-12-07T01:49:26.184Z,38.79
2023-12-07T01:49:58.754Z,38.54
2023-12-07T01:50:31.164Z,38.60
2023-12-07T01:51:05.561Z,38.78
2023-12-07T01:51:40.683Z,38.45
2023-12-07T01:52:13.261Z,38.46
2023-12-07T01:52:48.431Z,38.70
2023-12-07T01:53:22.155Z,38.74
2023-12-07T01:53:57.223Z,38.53
2023-12-07T01:54:29.603Z,38.65
2023-12-07T01:55:02.181Z,38.52
2023-12-07T01:55:34.843Z,38.33
2023-12-07T01:56:11.725Z,38.33
2023-12-07T01:56:44.241Z,38.80
2023-12-07T01:57:16.671Z,38.36
2023-12-07T01:57:51.744Z,38.75
2023-12-07T01:58:26.785Z,38.24
2023-12-07T01:58:59.325Z,38.47
2023-12-07T01:59:31.752Z,38.51
2023-12-07T02:00:05.175Z,38.63
2023-12-07T02:00:40.356Z,38.41
2023-12-07T02:01:13.837Z,38.75
2023-12-07T02:01:46.600Z,38.32
2023-12-07T02:02:19.522Z,38.47
2023-12-07T02:02:54.983Z,38.72
2023-12-07T02:03:28.740Z,38.70
2023-12-07T02:04:01.247Z,38.36
2023-12-07T02:04:34.224Z,38.47
2023-12-07T02:05:10.363Z,38.61
2023-12-07T02:05:44.732Z,38.75
2023-12-07T02:06:17.298Z,38.44
2023-12-07T02:06:49.891Z,38.65
2023-12-07T02:07:25.779Z,38.59
2023-12-07T02:07:58.249Z,38.33
2023-12-07T02:08:30.702Z,38.39
2023-12-07T02:09:03.658Z,38.75
2023-12-07T02:09:38.708Z,38.73
2023-12-07T02:10:12.012Z,38.34
2023-12-07T02:10:44.583Z,38.63
2023-12-07T02:11:17.034Z,38.39
2023-12-07T02:11:52.045Z,38.35
2023-12-07T02:12:24.628Z,38.65
2023-12-07T02:12:59.814Z,38.46
2023-12-07T02:13:32.201Z,38.37
2023-12-07T02:14:07.194Z,38.76
2023-12-07T02:14:39.609Z,38.67
2023-12-07T02:15:12.955Z,38.45
2023-12-07T02:15:45.457Z,38.64
2023-12-07T02:16:25.844Z,38.61
2023-12-07T02:17:02.976Z,38.52
2023-12-07T02:17:38.507Z,38.45
2023-12-07T02:18:19.019Z,38.39
2023-12-07T02:18:54.107Z,38.60
2023-12-07T02:19:51.713Z,38.46
2023-12-07T02:20:32.274Z,38.61
2023-12-07T02:21:12.534Z,38.36
2023-12-07T02:21:49.549Z,38.67
2023-12-07T02:22:27.931Z,38.55
2023-12-07T02:23:05.685Z,38.80
2023-12-07T02:23:46.664Z,38.72
2023-12-07T02:24:23.505Z,38.58
2023-12-07T02:25:06.297Z,38.41
2023-12-07T02:26:04.201Z,38.78
2023-12-07T02:27:17.897Z,38.48
2023-12-07T02:27:50.271Z,38.57
2023-12-07T02:28:22.698Z,38.41
2023-12-07T02:28:55.130Z,38.69
2023-12-07T02:29:30.066Z,38.82
2023-12-07T02:30:02.430Z,38.68
2023-12-07T02:30:34.817Z,38.42
2023-12-07T02:31:07.272Z,38.75
2023-12-07T02:31:42.315Z,38.72
2023-12-07T02:32:15.028Z,38.61
2023-12-07T02:32:47.691Z,38.60
2023-12-07T02:33:20.294Z,38.54
2023-12-07T02:33:55.509Z,38.49
2023-12-07T02:34:28.070Z,38.46
2023-12-07T02:35:01.233Z,38.85
2023-12-07T02:35:35.156Z,38.51
2023-12-07T02:36:10.924Z,38.69
2023-12-07T02:36:45.078Z,38.70
2023-12-07T02:37:17.982Z,38.47
2023-12-07T02:37:51.723Z,38.56
2023-12-07T02:38:27.333Z,38.63
2023-12-07T02:39:02.650Z,38.80
2023-12-07T02:39:35.134Z,38.59
2023-12-07T02:40:12.149Z,38.69
2023-12-07T02:40:48.950Z,38.56
2023-12-07T02:41:21.951Z,38.86
2023-12-07T02:41:55.308Z,38.54
2023-12-07T02:42:30.449Z,38.75
2023-12-07T02:43:05.952Z,38.72
2023-12-07T02:43:39.145Z,38.52
2023-12-07T02:44:11.810Z,38.49
2023-12-07T02:44:44.148Z,38.82
2023-12-07T02:45:19.575Z,38.81
2023-12-07T02:45:52.038Z,38.73
2023-12-07T02:46:24.429Z,38.64
2023-12-07T02:46:56.807Z,38.85
2023-12-07T02:47:33.056Z,38.48
2023-12-07T02:48:06.224Z,38.71
2023-12-07T02:48:38.635Z,38.48
2023-12-07T02:49:13.768Z,38.73
2023-12-07T02:49:46.214Z,38.58
2023-12-07T02:50:18.629Z,38.90
2023-12-07T02:50:51.132Z,38.86
2023-12-07T02:51:26.158Z,38.88
2023-12-07T02:51:58.590Z,38.48
2023-12-07T02:52:31.009Z,38.78
2023-12-07T02:53:06.060Z,38.87
2023-12-07T02:53:38.476Z,38.60
2023-12-07T02:54:10.884Z,38.57
2023-12-07T02:54:43.577Z,38.90
2023-12-07T02:55:18.679Z,38.60
2023-12-07T02:55:51.133Z,38.92
2023-12-07T02:56:23.556Z,38.85
2023-12-07T02:56:55.950Z,38.66
2023-12-07T02:57:34.829Z,38.98
2023-12-07T02:58:08.135Z,38.82
2023-12-07T02:58:40.697Z,38.94
2023-12-07T02:59:13.197Z,39.02
2023-12-07T02:59:48.141Z,38.71
2023-12-07T03:00:22.500Z,38.64
2023-12-07T03:00:54.857Z,38.77
2023-12-07T03:01:30.130Z,38.97
2023-12-07T03:02:02.607Z,38.56
2023-12-07T03:02:35.513Z,38.99
2023-12-07T03:03:07.919Z,38.97
2023-12-07T03:03:43.544Z,38.56
2023-12-07T03:04:15.988Z,38.88
2023-12-07T03:04:48.704Z,38.53
2023-12-07T03:05:21.762Z,38.79
2023-12-07T03:05:56.804Z,38.65
2023-12-07T03:06:30.155Z,38.53
2023-12-07T03:07:02.532Z,38.62
2023-12-07T03:07:37.748Z,38.78
2023-12-07T03:08:10.143Z,38.44
2023-12-07T03:08:42.480Z,38.76
2023-12-07T03:09:14.896Z,38.49
2023-12-07T03:09:49.878Z,38.86
2023-12-07T03:10:22.268Z,38.63
2023-12-07T03:10:54.638Z,38.85
2023-12-07T03:11:26.975Z,38.49
2023-12-07T03:11:59.318Z,38.46
2023-12-07T03:12:36.857Z,38.79
2023-12-07T03:13:09.282Z,38.73
2023-12-07T03:13:41.754Z,38.69
2023-12-07T03:14:14.150Z,38.45
2023-12-07T03:14:49.147Z,38.65
2023-12-07T03:15:22.537Z,38.51
2023-12-07T03:15:54.950Z,38.80
2023-12-07T03:16:29.922Z,38.37
2023-12-07T03:17:02.336Z,38.63
2023-12-07T03:17:35.280Z,38.81
2023-12-07T03:18:08.606Z,38.36
2023-12-07T03:18:43.712Z,38.77
2023-12-07T03:19:16.255Z,38.69
2023-12-07T03:19:48.736Z,38.53
2023-12-07T03:20:21.587Z,38.75
2023-12-07T03:20:56.548Z,38.74
2023-12-07T03:21:28.964Z,38.65
2023-12-07T03:22:01.379Z,38.42
2023-12-07T03:22:36.435Z,38.38
2023-12-07T03:23:08.902Z,38.82
2023-12-07T03:23:41.292Z,38.41
2023-12-07T03:24:13.750Z,38.40
2023-12-07T03:24:50.900Z,38.36
2023-12-07T03:25:23.524Z,38.58
2023-12-07T03:25:55.893Z,38.44
2023-12-07T03:26:28.271Z,38.34
2023-12-07T03:27:03.223Z,38.42
2023-12-07T03:27:38.206Z,38.78
2023-12-07T03:28:10.643Z,38.72
2023-12-07T03:28:43.001Z,38.31
2023-12-07T03:29:17.947Z,38.67
2023-12-07T03:29:50.422Z,38.38
2023-12-07T03:30:22.799Z,38.57
2023-12-07T03:30:55.221Z,38.65
2023-12-07T03:31:30.351Z,38.41
2023-12-07T03:32:02.713Z,38.37
2023-12-07T03:32:35.136Z,38.32
2023-12-07T03:33:07.679Z,38.47
2023-12-07T03:33:42.682Z,38.24
2023-12-07T03:34:17.097Z,38.22
2023-12-07T03:34:49.601Z,38.53
2023-12-07T03:35:23.028Z,38.56
2023-12-07T03:35:58.072Z,38.41
2023-12-07T03:36:32.472Z,38.39
2023-12-07T03:37:05.391Z,38.24
2023-12-07T03:37:37.831Z,38.64
2023-12-07T03:38:12.795Z,38.58
2023-12-07T03:38:45.160Z,38.19
2023-12-07T03:39:19.892Z,38.31
2023-12-07T03:39:55.046Z,38.53
2023-12-07T03:40:27.419Z,38.60
2023-12-07T03:40:59.804Z,38.24
2023-12-07T03:41:32.258Z,38.32
2023-12-07T03:42:48.191Z,38.30
2023-12-07T03:43:04.877Z,38.50
2023-12-07T03:43:40.044Z,38.32
2023-12-07T03:44:12.479Z,38.27
2023-12-07T03:44:45.271Z,38.56
2023-12-07T03:45:20.352Z,38.23
2023-12-07T03:45:53.525Z,38.41
2023-12-07T03:46:25.962Z,38.54
2023-12-07T03:47:01.089Z,38.70
2023-12-07T03:47:33.468Z,38.31
2023-12-07T03:48:06.432Z,38.62
2023-12-07T03:48:38.856Z,38.42
2023-12-07T03:49:13.866Z,38.64
2023-12-07T03:49:46.400Z,38.61
2023-12-07T03:50:18.776Z,38.67
2023-12-07T03:50:51.185Z,38.44
2023-12-07T03:51:26.159Z,38.26
2023-12-07T03:51:58.572Z,38.44
2023-12-07T03:52:31.043Z,38.39
2023-12-07T03:53:03.733Z,38.24
2023-12-07T03:53:38.680Z,38.17
2023-12-07T03:54:11.081Z,38.27
2023-12-07T03:54:43.441Z,38.62
2023-12-07T03:55:18.518Z,38.60
2023-12-07T03:55:50.930Z,38.63
2023-12-07T03:56:26.589Z,38.48
2023-12-07T03:56:58.932Z,38.30
2023-12-07T03:57:33.885Z,38.21
2023-12-07T03:58:08.869Z,38.25
2023-12-07T03:58:41.258Z,38.44
2023-12-07T03:59:13.634Z,38.66
2023-12-07T03:59:48.590Z,38.39
2023-12-07T04:00:20.951Z,38.24
2023-12-07T04:00:53.365Z,38.22
2023-12-07T04:01:26.704Z,38.27
2023-12-07T04:02:01.808Z,38.22
2023-12-07T04:02:34.503Z,38.46
2023-12-07T04:03:06.924Z,38.44
2023-12-07T04:03:39.508Z,38.38
2023-12-07T04:04:14.677Z,38.47
2023-12-07T04:04:47.039Z,38.51
2023-12-07T04:05:19.444Z,38.22
2023-12-07T04:05:51.861Z,38.14
2023-12-07T04:06:24.593Z,38.53
2023-12-07T04:06:59.547Z,38.25
2023-12-07T04:07:32.238Z,38.61
2023-12-07T04:08:06.418Z,38.58
2023-12-07T04:08:38.830Z,38.19
2023-12-07T04:09:13.840Z,38.13
2023-12-07T04:09:46.481Z,38.23
2023-12-07T04:10:18.871Z,38.29
2023-12-07T04:10:52.246Z,38.17
2023-12-07T04:11:27.231Z,38.60
2023-12-07T04:11:59.582Z,38.41
2023-12-07T04:12:31.939Z,38.17
2023-12-07T04:13:04.366Z,38.24
2023-12-07T04:13:42.513Z,38.55
2023-12-07T04:14:14.934Z,38.24
2023-12-07T04:14:47.271Z,38.31
2023-12-07T04:15:20.145Z,38.20
2023-12-07T04:15:55.124Z,38.55
2023-12-07T04:16:27.978Z,38.49
2023-12-07T04:17:00.400Z,38.14
2023-12-07T04:17:32.807Z,38.30
2023-12-07T04:18:08.046Z,38.14
2023-12-07T04:18:40.717Z,38.40
2023-12-07T04:19:13.316Z,38.39
2023-12-07T04:19:45.835Z,38.42
2023-12-07T04:20:21.044Z,38.53
2023-12-07T04:20:53.403Z,38.39
2023-12-07T04:21:25.783Z,38.59
2023-12-07T04:21:58.162Z,38.64
2023-12-07T04:22:30.635Z,38.24
2023-12-07T04:23:05.637Z,38.34
2023-12-07T04:23:38.022Z,38.56
2023-12-07T04:24:10.517Z,38.25
2023-12-07T04:24:42.853Z,38.71
2023-12-07T04:25:17.927Z,38.34
2023-12-07T04:25:50.511Z,38.53
2023-12-07T04:26:22.882Z,38.27
2023-12-07T04:26:55.967Z,38.66
2023-12-07T04:27:30.939Z,38.58
2023-12-07T04:28:03.524Z,38.30
2023-12-07T04:28:38.679Z,39.53
2023-12-07T04:29:13.789Z,39.86
2023-12-07T04:29:46.156Z,39.72
2023-12-07T04:30:18.612Z,40.00
2023-12-07T04:30:54.115Z,39.99
2023-12-07T04:31:26.605Z,39.55
2023-12-07T04:31:59.011Z,39.60
2023-12-07T04:32:31.389Z,39.12
2023-12-07T04:33:06.646Z,39.15
2023-12-07T04:33:39.173Z,38.85
2023-12-07T04:34:11.616Z,38.75
2023-12-07T04:34:44.246Z,38.42
2023-12-07T04:35:19.252Z,38.39
2023-12-07T04:35:51.786Z,38.22
2023-12-07T04:36:26.811Z,37.88
2023-12-07T04:36:59.256Z,37.58
2023-12-07T04:37:31.719Z,37.80
2023-12-07T04:38:04.246Z,37.31
2023-12-07T04:38:39.240Z,37.60
2023-12-07T04:39:11.618Z,37.10
2023-12-07T04:39:43.963Z,36.91
2023-12-07T04:40:16.961Z,37.15
2023-12-07T04:40:52.221Z,36.96
2023-12-07T04:41:24.583Z,36.68
2023-12-07T04:41:56.985Z,36.47
2023-12-07T04:42:29.323Z,36.62
2023-12-07T04:43:04.372Z,36.16
2023-12-07T04:43:39.419Z,36.72
2023-12-07T04:44:11.805Z,36.64
2023-12-07T04:44:44.202Z,36.27
2023-12-07T04:45:19.429Z,36.45
2023-12-07T04:45:51.808Z,36.55
2023-12-07T04:46:24.441Z,35.84
2023-12-07T04:46:56.941Z,36.19
2023-12-07T04:47:31.938Z,36.10
2023-12-07T04:48:05.903Z,35.74
2023-12-07T04:48:38.483Z,36.14
2023-12-07T04:49:13.654Z,36.08
2023-12-07T04:49:46.159Z,35.96
2023-12-07T04:50:18.957Z,35.88
2023-12-07T04:50:52.208Z,36.18
2023-12-07T04:51:27.167Z,35.96
2023-12-07T04:51:59.685Z,35.89
2023-12-07T04:52:33.162Z,36.13
2023-12-07T04:53:06.474Z,35.48
2023-12-07T04:53:41.502Z,35.72
2023-12-07T04:54:19.453Z,35.86
2023-12-07T04:54:52.618Z,35.74
2023-12-07T04:55:25.074Z,35.89
2023-12-07T04:56:00.186Z,35.64
2023-12-07T04:56:32.597Z,35.37
2023-12-07T04:57:05.402Z,35.88
2023-12-07T04:57:37.967Z,35.47
2023-12-07T04:58:13.062Z,35.38
2023-12-07T04:58:48.139Z,35.56
2023-12-07T04:59:20.498Z,35.64
2023-12-07T04:59:52.851Z,35.29
2023-12-07T05:00:28.636Z,35.67
2023-12-07T05:01:01.121Z,35.62
2023-12-07T05:01:33.660Z,35.47
2023-12-07T05:02:06.175Z,35.63
2023-12-07T05:02:39.036Z,35.38
2023-12-07T05:03:14.090Z,35.08
2023-12-07T05:03:46.595Z,35.23
2023-12-07T05:04:18.991Z,35.17
2023-12-07T05:04:51.375Z,35.20
2023-12-07T05:05:25.978Z,34.96
2023-12-07T05:06:01.199Z,35.43
2023-12-07T05:06:33.662Z,35.42
2023-12-07T05:07:06.164Z,35.02
2023-12-07T05:07:38.859Z,35.42
2023-12-07T05:08:13.922Z,35.04
2023-12-07T05:08:46.280Z,34.97
2023-12-07T05:09:18.919Z,35.52
2023-12-07T05:09:52.224Z,35.04
2023-12-07T05:10:27.255Z,35.04
2023-12-07T05:10:59.675Z,35.29
2023-12-07T05:11:32.041Z,34.97
2023-12-07T05:12:05.036Z,34.99
2023-12-07T05:12:39.993Z,35.42
2023-12-07T05:13:12.454Z,35.38
2023-12-07T05:13:47.449Z,34.98
2023-12-07T05:14:19.815Z,35.01
2023-12-07T05:14:54.769Z,34.92
2023-12-07T05:15:27.157Z,34.93
2023-12-07T05:15:59.801Z,35.06
2023-12-07T05:16:32.284Z,35.33
2023-12-07T05:17:07.949Z,34.84
2023-12-07T05:17:40.392Z,34.43
2023-12-07T05:18:12.853Z,34.87
2023-12-07T05:18:45.506Z,34.40
2023-12-07T05:19:20.569Z,34.92
2023-12-07T05:19:53.025Z,35.00
2023-12-07T05:20:27.071Z,35.07
2023-12-07T05:21:02.011Z,34.75
2023-12-07T05:21:34.367Z,34.91
2023-12-07T05:22:06.829Z,34.91
2023-12-07T05:22:39.246Z,35.42
2023-12-07T05:23:14.322Z,35.62
2023-12-07T05:23:46.666Z,35.50
2023-12-07T05:24:19.676Z,35.51
2023-12-07T05:24:52.254Z,35.50
2023-12-07T05:25:27.230Z,35.86
2023-12-07T05:25:59.589Z,35.91
2023-12-07T05:26:34.277Z,35.88
2023-12-07T05:27:06.651Z,36.25
2023-12-07T05:27:41.614Z,36.37
2023-12-07T05:28:14.415Z,36.60
2023-12-07T05:28:49.671Z,36.37
2023-12-07T05:29:22.187Z,36.69
2023-12-07T05:29:57.175Z,36.49
2023-12-07T05:30:29.513Z,37.00
2023-12-07T05:31:02.085Z,36.94
2023-12-07T05:31:34.535Z,37.15
2023-12-07T05:32:10.549Z,36.84
2023-12-07T05:32:42.941Z,37.15
2023-12-07T05:33:16.671Z,37.21
2023-12-07T05:33:49.108Z,37.30
2023-12-07T05:34:24.187Z,37.10
2023-12-07T05:34:56.607Z,37.23
2023-12-07T05:35:29.013Z,37.27
2023-12-07T05:36:01.892Z,37.12
2023-12-07T05:36:36.927Z,37.37
2023-12-07T05:37:09.524Z,37.30
2023-12-07T05:37:41.937Z,37.52
2023-12-07T05:38:17.229Z,37.46
2023-12-07T05:38:49.585Z,37.79
2023-12-07T05:39:22.824Z,37.43
2023-12-07T05:39:55.171Z,37.63
2023-12-07T05:40:30.344Z,37.85
2023-12-07T05:41:02.991Z,37.66
2023-12-07T05:41:35.376Z,37.82
2023-12-07T05:42:07.835Z,37.68
2023-12-07T05:42:42.787Z,37.85
2023-12-07T05:43:16.716Z,38.04
2023-12-07T05:43:52.598Z,37.88
2023-12-07T05:44:25.009Z,37.64
2023-12-07T05:45:00.665Z,37.96
2023-12-07T05:45:33.041Z,37.92
2023-12-07T05:46:05.689Z,38.08
2023-12-07T05:46:38.247Z,37.85
2023-12-07T05:47:13.371Z,37.71
2023-12-07T05:47:45.884Z,37.71
2023-12-07T05:48:18.423Z,37.85
2023-12-07T05:48:52.299Z,38.04
2023-12-07T05:49:29.032Z,38.22
2023-12-07T05:50:01.473Z,38.08
2023-12-07T05:50:33.918Z,37.89
2023-12-07T05:51:06.732Z,38.24
2023-12-07T05:51:41.691Z,38.29
2023-12-07T05:52:14.124Z,38.33
2023-12-07T05:52:46.540Z,38.30
2023-12-07T05:53:21.514Z,37.99
2023-12-07T05:53:54.097Z,38.02
2023-12-07T05:54:26.584Z,38.66
2023-12-07T05:54:59.036Z,39.54
2023-12-07T05:55:34.460Z,39.84
2023-12-07T05:56:07.645Z,39.94
2023-12-07T05:56:40.136Z,39.89
2023-12-07T05:57:12.526Z,40.27
2023-12-07T05:57:49.166Z,40.30
2023-12-07T05:58:21.599Z,40.42
2023-12-07T05:58:56.564Z,40.62
2023-12-07T05:59:31.507Z,41.30
2023-12-07T06:00:04.791Z,41.41
2023-12-07T06:00:44.997Z,41.35
2023-12-07T06:01:19.202Z,41.42
2023-12-07T06:01:55.999Z,41.45
2023-12-07T06:02:28.678Z,41.38
2023-12-07T06:03:01.126Z,41.05
2023-12-07T06:03:33.968Z,41.10
2023-12-07T06:04:14.010Z,40.82
2023-12-07T06:04:46.682Z,40.92
2023-12-07T06:05:19.593Z,41.05
2023-12-07T06:05:52.061Z,40.85
2023-12-07T06:06:27.065Z,40.68
2023-12-07T06:06:59.482Z,40.87
2023-12-07T06:07:32.159Z,40.66
2023-12-07T06:08:05.600Z,40.76
2023-12-07T06:08:41.014Z,41.05
2023-12-07T06:09:13.353Z,40.91
2023-12-07T06:09:45.899Z,40.71
2023-12-07T06:10:20.974Z,40.76
2023-12-07T06:10:53.374Z,40.97
2023-12-07T06:11:25.740Z,40.62
2023-12-07T06:11:58.161Z,40.91
2023-12-07T06:12:33.521Z,40.54
2023-12-07T06:13:06.491Z,40.76
2023-12-07T06:13:39.541Z,40.99
2023-12-07T06:14:14.597Z,40.98
2023-12-07T06:14:49.557Z,40.98
2023-12-07T06:15:21.940Z,40.68
2023-12-07T06:15:54.301Z,40.60
2023-12-07T06:16:27.807Z,40.71
2023-12-07T06:17:03.240Z,40.71
2023-12-07T06:17:35.730Z,40.82
2023-12-07T06:18:08.359Z,40.52
2023-12-07T06:18:41.004Z,40.46
2023-12-07T06:19:16.140Z,40.86
2023-12-07T06:19:48.733Z,40.78
2023-12-07T06:20:21.465Z,40.51
2023-12-07T06:20:53.885Z,40.47
2023-12-07T06:21:31.145Z,40.55
2023-12-07T06:22:05.015Z,40.35
2023-12-07T06:22:37.445Z,40.42
2023-12-07T06:23:14.017Z,40.48
2023-12-07T06:23:49.122Z,40.74
2023-12-07T06:24:25.891Z,40.70
2023-12-07T06:24:58.305Z,40.69
2023-12-07T06:25:30.733Z,40.33
2023-12-07T06:26:03.637Z,40.39
2023-12-07T06:26:38.609Z,40.50
2023-12-07T06:27:11.469Z,40.25
2023-12-07T06:27:43.809Z,40.67
2023-12-07T06:28:18.998Z,40.67
2023-12-07T06:28:51.453Z,40.64
2023-12-07T06:29:28.749Z,40.23
2023-12-07T06:30:02.304Z,40.65
2023-12-07T06:30:37.323Z,40.42
2023-12-07T06:31:10.205Z,40.65
2023-12-07T06:31:44.901Z,40.47
2023-12-07T06:32:20.056Z,40.23
2023-12-07T06:32:52.460Z,40.67
2023-12-07T06:33:24.898Z,40.57
2023-12-07T06:33:57.316Z,40.57
2023-12-07T06:34:32.484Z,40.58
2023-12-07T06:35:05.940Z,40.45
2023-12-07T06:35:38.357Z,40.25
2023-12-07T06:36:11.067Z,40.19
2023-12-07T06:36:46.061Z,40.30
2023-12-07T06:37:19.191Z,40.37
2023-12-07T06:37:51.596Z,40.41
2023-12-07T06:38:23.937Z,40.40
2023-12-07T06:38:59.451Z,40.21
2023-12-07T06:39:31.816Z,40.52
2023-12-07T06:40:05.975Z,40.47
2023-12-07T06:40:38.381Z,40.22
2023-12-07T06:41:13.375Z,40.21
2023-12-07T06:41:45.737Z,40.55
2023-12-07T06:42:18.112Z,40.19
2023-12-07T06:42:53.104Z,40.60
2023-12-07T06:43:25.632Z,40.33
2023-12-07T06:43:59.556Z,40.25
2023-12-07T06:44:34.645Z,40.59
2023-12-07T06:45:12.372Z,40.64
2023-12-07T06:45:44.723Z,40.69
2023-12-07T06:46:17.883Z,40.38
2023-12-07T06:46:53.592Z,40.66
2023-12-07T06:47:26.201Z,40.21
2023-12-07T06:47:58.821Z,40.27
2023-12-07T06:48:31.237Z,40.23
2023-12-07T06:49:06.376Z,40.60
2023-12-07T06:49:47.349Z,40.28
2023-12-07T06:50:24.694Z,40.54
2023-12-07T06:50:59.653Z,40.36
2023-12-07T06:51:32.044Z,40.61
2023-12-07T06:52:05.054Z,40.52
2023-12-07T06:52:37.538Z,40.53
2023-12-07T06:53:12.583Z,40.29
2023-12-07T06:53:44.954Z,40.33
2023-12-07T06:54:17.408Z,40.35
2023-12-07T06:54:49.824Z,40.57
2023-12-07T06:55:25.485Z,40.23
2023-12-07T06:55:57.910Z,40.50
2023-12-07T06:56:30.281Z,40.37
2023-12-07T06:57:05.257Z,40.53
2023-12-07T06:57:37.616Z,40.37
2023-12-07T06:58:11.361Z,40.58
2023-12-07T06:58:43.927Z,40.33
2023-12-07T06:59:19.016Z,40.64
2023-12-07T06:59:54.027Z,40.22
2023-12-07T07:00:26.397Z,40.22
2023-12-07T07:00:59.033Z,40.21
2023-12-07T07:01:34.653Z,40.33
2023-12-07T07:02:07.587Z,40.35
2023-12-07T07:02:40.161Z,40.32
2023-12-07T07:03:12.540Z,40.62
2023-12-07T07:03:47.603Z,40.33
2023-12-07T07:04:20.364Z,40.59
2023-12-07T07:04:53.270Z,40.60
2023-12-07T07:05:25.857Z,40.67
2023-12-07T07:06:01.161Z,40.36
2023-12-07T07:06:33.535Z,40.28
2023-12-07T07:07:06.130Z,40.36
2023-12-07T07:07:38.876Z,40.59
2023-12-07T07:08:13.854Z,40.62
2023-12-07T07:08:47.257Z,40.76
2023-12-07T07:09:19.651Z,40.39
2023-12-07T07:09:52.020Z,40.66
2023-12-07T07:10:26.997Z,40.35
2023-12-07T07:10:59.356Z,40.34
2023-12-07T07:11:31.714Z,40.42
2023-12-07T07:12:07.345Z,40.36
2023-12-07T07:12:39.749Z,40.53
2023-12-07T07:13:12.205Z,40.26
2023-12-07T07:13:44.751Z,40.28
2023-12-07T07:14:19.848Z,40.50